sensor_id;sensor_type;location;lat;lon;timestamp;P1;durP1;ratioP1;P2;durP2;ratioP2
70228;SDS011;57617;51.988;5.854;2023-04-25T00:01:58;16.55;;;2.97;;
70228;SDS011;57617;51.988;5.854;2023-04-25T00:04:24;17.25;;;3.60;;
70228;SDS011;57617;51.988;5.854;2023-04-25T00:06:52;13.10;;;2.80;;
70228;SDS011;57617;51.988;5.854;2023-04-25T00:09:19;13.75;;;2.63;;
70228;SDS011;57617;51.988;5.854;2023-04-25T00:11:44;10.75;;;2.90;;
70228;SDS011;57617;51.988;5.854;2023-04-25T00:14:09;10.75;;;2.58;;
70228;SDS011;57617;51.988;5.854;2023-04-25T00:16:35;12.30;;;2.55;;
70228;SDS011;57617;51.988;5.854;2023-04-25T00:19:00;16.05;;;3.28;;
70228;SDS011;57617;51.988;5.854;2023-04-25T00:21:28;14.75;;;2.92;;
70228;SDS011;57617;51.988;5.854;2023-04-25T00:23:53;13.07;;;2.90;;
70228;SDS011;57617;51.988;5.854;2023-04-25T00:26:19;14.75;;;3.17;;
70228;SDS011;57617;51.988;5.854;2023-04-25T00:28:46;12.98;;;2.63;;
70228;SDS011;57617;51.988;5.854;2023-04-25T00:31:11;11.52;;;2.50;;
70228;SDS011;57617;51.988;5.854;2023-04-25T00:33:37;17.30;;;3.15;;
70228;SDS011;57617;51.988;5.854;2023-04-25T00:36:02;15.60;;;3.20;;
70228;SDS011;57617;51.988;5.854;2023-04-25T00:38:28;17.40;;;3.25;;
70228;SDS011;57617;51.988;5.854;2023-04-25T00:40:53;8.70;;;2.65;;
70228;SDS011;57617;51.988;5.854;2023-04-25T00:43:20;11.85;;;3.25;;
70228;SDS011;57617;51.988;5.854;2023-04-25T00:45:46;17.55;;;3.40;;
70228;SDS011;57617;51.988;5.854;2023-04-25T00:48:13;14.85;;;3.10;;
70228;SDS011;57617;51.988;5.854;2023-04-25T00:50:39;15.25;;;3.40;;
70228;SDS011;57617;51.988;5.854;2023-04-25T00:53:05;16.40;;;3.15;;
70228;SDS011;57617;51.988;5.854;2023-04-25T00:55:31;20.58;;;3.30;;
70228;SDS011;57617;51.988;5.854;2023-04-25T00:57:57;16.13;;;3.75;;
70228;SDS011;57617;51.988;5.854;2023-04-25T01:00:22;19.77;;;3.78;;
70228;SDS011;57617;51.988;5.854;2023-04-25T01:02:48;14.02;;;3.20;;
70228;SDS011;57617;51.988;5.854;2023-04-25T01:05:14;15.05;;;3.42;;
70228;SDS011;57617;51.988;5.854;2023-04-25T01:07:40;20.45;;;4.03;;
70228;SDS011;57617;51.988;5.854;2023-04-25T01:10:06;14.52;;;3.55;;
70228;SDS011;57617;51.988;5.854;2023-04-25T01:12:32;17.27;;;3.70;;
70228;SDS011;57617;51.988;5.854;2023-04-25T01:14:57;17.23;;;3.47;;
70228;SDS011;57617;51.988;5.854;2023-04-25T01:17:23;17.13;;;3.60;;
70228;SDS011;57617;51.988;5.854;2023-04-25T01:19:49;15.65;;;3.67;;
70228;SDS011;57617;51.988;5.854;2023-04-25T01:22:15;22.10;;;4.32;;
70228;SDS011;57617;51.988;5.854;2023-04-25T01:24:41;20.27;;;3.90;;
70228;SDS011;57617;51.988;5.854;2023-04-25T01:27:08;18.42;;;3.88;;
70228;SDS011;57617;51.988;5.854;2023-04-25T01:29:34;14.50;;;3.58;;
70228;SDS011;57617;51.988;5.854;2023-04-25T01:31:59;15.68;;;3.58;;
70228;SDS011;57617;51.988;5.854;2023-04-25T01:34:26;16.80;;;3.50;;
70228;SDS011;57617;51.988;5.854;2023-04-25T01:36:51;13.88;;;3.75;;
70228;SDS011;57617;51.988;5.854;2023-04-25T01:39:17;10.98;;;3.60;;
70228;SDS011;57617;51.988;5.854;2023-04-25T01:41:43;20.70;;;3.75;;
70228;SDS011;57617;51.988;5.854;2023-04-25T01:44:10;19.95;;;3.83;;
70228;SDS011;57617;51.988;5.854;2023-04-25T01:46:35;11.10;;;3.63;;
70228;SDS011;57617;51.988;5.854;2023-04-25T01:49:00;15.53;;;3.60;;
70228;SDS011;57617;51.988;5.854;2023-04-25T01:51:26;20.75;;;3.85;;
70228;SDS011;57617;51.988;5.854;2023-04-25T01:53:51;24.27;;;3.83;;
70228;SDS011;57617;51.988;5.854;2023-04-25T01:56:17;17.15;;;3.70;;
70228;SDS011;57617;51.988;5.854;2023-04-25T01:58:43;16.05;;;3.72;;
70228;SDS011;57617;51.988;5.854;2023-04-25T02:01:09;17.42;;;4.15;;
70228;SDS011;57617;51.988;5.854;2023-04-25T02:03:35;14.77;;;3.55;;
70228;SDS011;57617;51.988;5.854;2023-04-25T02:06:01;16.92;;;4.10;;
70228;SDS011;57617;51.988;5.854;2023-04-25T02:08:26;15.50;;;3.72;;
70228;SDS011;57617;51.988;5.854;2023-04-25T02:10:52;22.33;;;3.95;;
70228;SDS011;57617;51.988;5.854;2023-04-25T02:13:17;18.00;;;3.90;;
70228;SDS011;57617;51.988;5.854;2023-04-25T02:15:42;15.10;;;3.50;;
70228;SDS011;57617;51.988;5.854;2023-04-25T02:18:08;20.02;;;3.95;;
70228;SDS011;57617;51.988;5.854;2023-04-25T02:20:35;16.55;;;3.50;;
70228;SDS011;57617;51.988;5.854;2023-04-25T02:23:01;14.38;;;4.00;;
70228;SDS011;57617;51.988;5.854;2023-04-25T02:25:26;20.13;;;3.75;;
70228;SDS011;57617;51.988;5.854;2023-04-25T02:27:52;14.07;;;2.95;;
70228;SDS011;57617;51.988;5.854;2023-04-25T02:30:17;16.50;;;3.67;;
70228;SDS011;57617;51.988;5.854;2023-04-25T02:32:42;17.95;;;3.70;;
70228;SDS011;57617;51.988;5.854;2023-04-25T02:35:08;18.70;;;3.85;;
70228;SDS011;57617;51.988;5.854;2023-04-25T02:37:34;20.30;;;3.33;;
70228;SDS011;57617;51.988;5.854;2023-04-25T02:40:00;18.40;;;3.28;;
70228;SDS011;57617;51.988;5.854;2023-04-25T02:42:26;14.60;;;3.47;;
70228;SDS011;57617;51.988;5.854;2023-04-25T02:44:52;13.30;;;3.33;;
70228;SDS011;57617;51.988;5.854;2023-04-25T02:47:18;24.55;;;3.80;;
70228;SDS011;57617;51.988;5.854;2023-04-25T02:49:43;17.20;;;3.53;;
70228;SDS011;57617;51.988;5.854;2023-04-25T02:52:08;14.25;;;3.33;;
70228;SDS011;57617;51.988;5.854;2023-04-25T02:54:34;20.77;;;3.53;;
70228;SDS011;57617;51.988;5.854;2023-04-25T02:56:59;15.88;;;3.58;;
70228;SDS011;57617;51.988;5.854;2023-04-25T02:59:25;14.60;;;3.70;;
70228;SDS011;57617;51.988;5.854;2023-04-25T03:01:50;16.52;;;3.30;;
70228;SDS011;57617;51.988;5.854;2023-04-25T03:04:15;15.02;;;3.25;;
70228;SDS011;57617;51.988;5.854;2023-04-25T03:06:41;11.85;;;3.20;;
70228;SDS011;57617;51.988;5.854;2023-04-25T03:09:06;15.30;;;3.33;;
70228;SDS011;57617;51.988;5.854;2023-04-25T03:11:32;13.23;;;3.22;;
70228;SDS011;57617;51.988;5.854;2023-04-25T03:13:57;16.10;;;3.28;;
70228;SDS011;57617;51.988;5.854;2023-04-25T03:16:23;11.32;;;3.10;;
70228;SDS011;57617;51.988;5.854;2023-04-25T03:18:49;16.80;;;3.15;;
70228;SDS011;57617;51.988;5.854;2023-04-25T03:21:15;13.40;;;3.65;;
70228;SDS011;57617;51.988;5.854;2023-04-25T03:23:41;20.42;;;3.55;;
70228;SDS011;57617;51.988;5.854;2023-04-25T03:26:06;13.68;;;3.53;;
70228;SDS011;57617;51.988;5.854;2023-04-25T03:28:31;16.58;;;3.60;;
70228;SDS011;57617;51.988;5.854;2023-04-25T03:30:57;20.37;;;4.03;;
70228;SDS011;57617;51.988;5.854;2023-04-25T03:33:22;16.60;;;4.00;;
70228;SDS011;57617;51.988;5.854;2023-04-25T03:35:47;13.80;;;3.33;;
70228;SDS011;57617;51.988;5.854;2023-04-25T03:38:12;15.45;;;3.50;;
70228;SDS011;57617;51.988;5.854;2023-04-25T03:40:38;14.53;;;3.10;;
70228;SDS011;57617;51.988;5.854;2023-04-25T03:43:03;15.27;;;3.67;;
70228;SDS011;57617;51.988;5.854;2023-04-25T03:45:28;15.32;;;3.70;;
70228;SDS011;57617;51.988;5.854;2023-04-25T03:47:54;16.10;;;3.57;;
70228;SDS011;57617;51.988;5.854;2023-04-25T03:50:19;18.35;;;3.65;;
70228;SDS011;57617;51.988;5.854;2023-04-25T03:52:44;14.10;;;3.05;;
70228;SDS011;57617;51.988;5.854;2023-04-25T03:55:10;13.90;;;3.97;;
70228;SDS011;57617;51.988;5.854;2023-04-25T03:57:35;16.17;;;3.20;;
70228;SDS011;57617;51.988;5.854;2023-04-25T04:00:00;11.95;;;3.50;;
70228;SDS011;57617;51.988;5.854;2023-04-25T04:02:26;17.25;;;4.15;;
70228;SDS011;57617;51.988;5.854;2023-04-25T04:04:52;10.75;;;3.00;;
70228;SDS011;57617;51.988;5.854;2023-04-25T04:07:17;11.18;;;3.47;;
70228;SDS011;57617;51.988;5.854;2023-04-25T04:09:42;15.23;;;3.50;;
70228;SDS011;57617;51.988;5.854;2023-04-25T04:12:07;18.92;;;3.20;;
70228;SDS011;57617;51.988;5.854;2023-04-25T04:14:33;15.13;;;3.30;;
70228;SDS011;57617;51.988;5.854;2023-04-25T04:16:58;23.80;;;3.53;;
70228;SDS011;57617;51.988;5.854;2023-04-25T04:19:23;14.52;;;3.22;;
70228;SDS011;57617;51.988;5.854;2023-04-25T04:21:49;17.10;;;3.55;;
70228;SDS011;57617;51.988;5.854;2023-04-25T04:24:14;14.43;;;3.25;;
70228;SDS011;57617;51.988;5.854;2023-04-25T04:26:41;17.90;;;3.63;;
70228;SDS011;57617;51.988;5.854;2023-04-25T04:29:09;18.23;;;3.10;;
70228;SDS011;57617;51.988;5.854;2023-04-25T04:31:35;18.77;;;3.95;;
70228;SDS011;57617;51.988;5.854;2023-04-25T04:34:01;15.82;;;3.25;;
70228;SDS011;57617;51.988;5.854;2023-04-25T04:36:26;15.70;;;3.43;;
70228;SDS011;57617;51.988;5.854;2023-04-25T04:38:52;17.88;;;3.42;;
70228;SDS011;57617;51.988;5.854;2023-04-25T04:41:18;14.57;;;3.20;;
70228;SDS011;57617;51.988;5.854;2023-04-25T04:43:44;11.70;;;3.30;;
70228;SDS011;57617;51.988;5.854;2023-04-25T04:46:09;14.75;;;3.55;;
70228;SDS011;57617;51.988;5.854;2023-04-25T04:48:35;18.17;;;3.67;;
70228;SDS011;57617;51.988;5.854;2023-04-25T04:51:00;13.23;;;3.30;;
70228;SDS011;57617;51.988;5.854;2023-04-25T04:53:26;18.02;;;3.55;;
70228;SDS011;57617;51.988;5.854;2023-04-25T04:55:51;17.42;;;3.30;;
70228;SDS011;57617;51.988;5.854;2023-04-25T04:58:17;19.17;;;3.43;;
70228;SDS011;57617;51.988;5.854;2023-04-25T05:00:43;19.48;;;3.35;;
70228;SDS011;57617;51.988;5.854;2023-04-25T05:03:08;10.02;;;3.33;;
70228;SDS011;57617;51.988;5.854;2023-04-25T05:05:33;15.52;;;3.22;;
70228;SDS011;57617;51.988;5.854;2023-04-25T05:07:58;15.65;;;3.75;;
70228;SDS011;57617;51.988;5.854;2023-04-25T05:10:24;15.73;;;3.50;;
70228;SDS011;57617;51.988;5.854;2023-04-25T05:12:50;15.30;;;3.45;;
70228;SDS011;57617;51.988;5.854;2023-04-25T05:15:15;14.55;;;3.35;;
70228;SDS011;57617;51.988;5.854;2023-04-25T05:17:41;16.98;;;3.67;;
70228;SDS011;57617;51.988;5.854;2023-04-25T05:20:07;14.88;;;3.28;;
70228;SDS011;57617;51.988;5.854;2023-04-25T05:22:34;18.13;;;4.07;;
70228;SDS011;57617;51.988;5.854;2023-04-25T05:24:59;12.77;;;3.80;;
70228;SDS011;57617;51.988;5.854;2023-04-25T05:27:24;15.68;;;3.40;;
70228;SDS011;57617;51.988;5.854;2023-04-25T05:29:51;20.20;;;3.97;;
70228;SDS011;57617;51.988;5.854;2023-04-25T05:32:17;17.25;;;4.10;;
70228;SDS011;57617;51.988;5.854;2023-04-25T05:34:43;16.95;;;3.83;;
70228;SDS011;57617;51.988;5.854;2023-04-25T05:37:08;17.00;;;4.00;;
70228;SDS011;57617;51.988;5.854;2023-04-25T05:39:33;15.68;;;3.60;;
70228;SDS011;57617;51.988;5.854;2023-04-25T05:41:59;15.43;;;4.20;;
70228;SDS011;57617;51.988;5.854;2023-04-25T05:44:24;16.50;;;3.75;;
70228;SDS011;57617;51.988;5.854;2023-04-25T05:46:49;15.77;;;3.87;;
70228;SDS011;57617;51.988;5.854;2023-04-25T05:49:15;16.17;;;3.90;;
70228;SDS011;57617;51.988;5.854;2023-04-25T05:51:40;20.90;;;4.40;;
70228;SDS011;57617;51.988;5.854;2023-04-25T05:54:05;19.40;;;4.07;;
70228;SDS011;57617;51.988;5.854;2023-04-25T05:56:31;16.63;;;4.00;;
70228;SDS011;57617;51.988;5.854;2023-04-25T05:58:56;22.10;;;5.07;;
70228;SDS011;57617;51.988;5.854;2023-04-25T06:01:22;15.70;;;4.32;;
70228;SDS011;57617;51.988;5.854;2023-04-25T06:03:48;19.02;;;3.70;;
70228;SDS011;57617;51.988;5.854;2023-04-25T06:06:13;10.88;;;3.35;;
70228;SDS011;57617;51.988;5.854;2023-04-25T06:08:38;12.85;;;3.30;;
70228;SDS011;57617;51.988;5.854;2023-04-25T06:11:05;12.60;;;3.23;;
70228;SDS011;57617;51.988;5.854;2023-04-25T06:13:30;10.13;;;3.00;;
70228;SDS011;57617;51.988;5.854;2023-04-25T06:15:56;9.60;;;3.35;;
70228;SDS011;57617;51.988;5.854;2023-04-25T06:18:21;12.30;;;3.03;;
70228;SDS011;57617;51.988;5.854;2023-04-25T06:20:46;10.48;;;3.20;;
70228;SDS011;57617;51.988;5.854;2023-04-25T06:23:12;11.33;;;3.43;;
70228;SDS011;57617;51.988;5.854;2023-04-25T06:25:37;10.32;;;3.20;;
70228;SDS011;57617;51.988;5.854;2023-04-25T06:28:02;16.38;;;4.15;;
70228;SDS011;57617;51.988;5.854;2023-04-25T06:30:28;15.57;;;3.63;;
70228;SDS011;57617;51.988;5.854;2023-04-25T06:32:53;22.30;;;3.72;;
70228;SDS011;57617;51.988;5.854;2023-04-25T06:35:18;15.52;;;3.50;;
70228;SDS011;57617;51.988;5.854;2023-04-25T06:37:44;17.33;;;3.63;;
70228;SDS011;57617;51.988;5.854;2023-04-25T06:40:09;12.25;;;3.15;;
70228;SDS011;57617;51.988;5.854;2023-04-25T06:42:35;10.10;;;3.10;;
70228;SDS011;57617;51.988;5.854;2023-04-25T06:45:01;16.88;;;3.17;;
70228;SDS011;57617;51.988;5.854;2023-04-25T06:47:26;15.40;;;3.42;;
70228;SDS011;57617;51.988;5.854;2023-04-25T06:49:51;12.18;;;3.30;;
70228;SDS011;57617;51.988;5.854;2023-04-25T06:52:17;13.23;;;2.83;;
70228;SDS011;57617;51.988;5.854;2023-04-25T06:54:43;17.08;;;3.15;;
70228;SDS011;57617;51.988;5.854;2023-04-25T06:57:08;13.73;;;3.30;;
70228;SDS011;57617;51.988;5.854;2023-04-25T06:59:33;15.35;;;3.22;;
70228;SDS011;57617;51.988;5.854;2023-04-25T07:01:59;10.35;;;3.13;;
70228;SDS011;57617;51.988;5.854;2023-04-25T07:04:24;10.63;;;2.75;;
70228;SDS011;57617;51.988;5.854;2023-04-25T07:06:50;15.52;;;2.97;;
70228;SDS011;57617;51.988;5.854;2023-04-25T07:09:15;12.90;;;2.97;;
70228;SDS011;57617;51.988;5.854;2023-04-25T07:11:41;14.82;;;2.92;;
70228;SDS011;57617;51.988;5.854;2023-04-25T07:14:06;13.57;;;2.60;;
70228;SDS011;57617;51.988;5.854;2023-04-25T07:16:31;11.35;;;2.50;;
70228;SDS011;57617;51.988;5.854;2023-04-25T07:18:57;10.02;;;2.28;;
70228;SDS011;57617;51.988;5.854;2023-04-25T07:21:22;10.70;;;2.10;;
70228;SDS011;57617;51.988;5.854;2023-04-25T07:23:47;9.90;;;2.13;;
70228;SDS011;57617;51.988;5.854;2023-04-25T07:26:13;9.23;;;2.35;;
70228;SDS011;57617;51.988;5.854;2023-04-25T07:28:38;8.85;;;1.92;;
70228;SDS011;57617;51.988;5.854;2023-04-25T07:31:03;7.20;;;2.00;;
70228;SDS011;57617;51.988;5.854;2023-04-25T07:33:30;12.02;;;2.35;;
70228;SDS011;57617;51.988;5.854;2023-04-25T07:35:55;11.48;;;1.88;;
70228;SDS011;57617;51.988;5.854;2023-04-25T07:38:20;7.85;;;1.80;;
70228;SDS011;57617;51.988;5.854;2023-04-25T07:40:47;11.60;;;2.20;;
70228;SDS011;57617;51.988;5.854;2023-04-25T07:43:12;10.05;;;1.55;;
70228;SDS011;57617;51.988;5.854;2023-04-25T07:45:41;11.27;;;1.83;;
70228;SDS011;57617;51.988;5.854;2023-04-25T07:48:07;15.10;;;1.90;;
70228;SDS011;57617;51.988;5.854;2023-04-25T07:50:33;9.32;;;1.90;;
70228;SDS011;57617;51.988;5.854;2023-04-25T07:52:58;12.32;;;1.88;;
70228;SDS011;57617;51.988;5.854;2023-04-25T07:55:23;10.02;;;1.73;;
70228;SDS011;57617;51.988;5.854;2023-04-25T07:57:48;9.52;;;1.52;;
70228;SDS011;57617;51.988;5.854;2023-04-25T08:00:14;9.93;;;1.80;;
70228;SDS011;57617;51.988;5.854;2023-04-25T08:02:40;6.57;;;1.63;;
70228;SDS011;57617;51.988;5.854;2023-04-25T08:05:05;10.80;;;2.03;;
70228;SDS011;57617;51.988;5.854;2023-04-25T08:07:33;7.45;;;1.45;;
70228;SDS011;57617;51.988;5.854;2023-04-25T08:09:58;11.32;;;1.80;;
70228;SDS011;57617;51.988;5.854;2023-04-25T08:12:23;7.03;;;1.30;;
70228;SDS011;57617;51.988;5.854;2023-04-25T08:14:49;7.72;;;1.40;;
70228;SDS011;57617;51.988;5.854;2023-04-25T08:17:15;9.98;;;2.28;;
70228;SDS011;57617;51.988;5.854;2023-04-25T08:19:40;5.55;;;1.23;;
70228;SDS011;57617;51.988;5.854;2023-04-25T08:22:05;6.72;;;1.20;;
70228;SDS011;57617;51.988;5.854;2023-04-25T08:24:31;8.80;;;1.50;;
70228;SDS011;57617;51.988;5.854;2023-04-25T08:26:56;5.78;;;1.67;;
70228;SDS011;57617;51.988;5.854;2023-04-25T08:29:21;7.82;;;1.55;;
70228;SDS011;57617;51.988;5.854;2023-04-25T08:31:48;6.30;;;1.30;;
70228;SDS011;57617;51.988;5.854;2023-04-25T08:34:14;6.57;;;1.10;;
70228;SDS011;57617;51.988;5.854;2023-04-25T08:36:40;9.52;;;1.35;;
70228;SDS011;57617;51.988;5.854;2023-04-25T08:39:05;8.90;;;1.10;;
70228;SDS011;57617;51.988;5.854;2023-04-25T08:41:30;10.43;;;1.85;;
70228;SDS011;57617;51.988;5.854;2023-04-25T08:43:56;9.23;;;1.30;;
70228;SDS011;57617;51.988;5.854;2023-04-25T08:46:25;7.82;;;1.23;;
70228;SDS011;57617;51.988;5.854;2023-04-25T08:48:50;6.15;;;1.00;;
70228;SDS011;57617;51.988;5.854;2023-04-25T08:51:23;7.15;;;1.17;;
70228;SDS011;57617;51.988;5.854;2023-04-25T08:53:51;5.72;;;1.40;;
70228;SDS011;57617;51.988;5.854;2023-04-25T08:56:17;6.05;;;1.20;;
70228;SDS011;57617;51.988;5.854;2023-04-25T08:58:47;6.30;;;1.02;;
70228;SDS011;57617;51.988;5.854;2023-04-25T09:01:13;6.20;;;1.40;;
70228;SDS011;57617;51.988;5.854;2023-04-25T09:03:38;7.90;;;1.17;;
70228;SDS011;57617;51.988;5.854;2023-04-25T09:06:04;7.70;;;1.55;;
70228;SDS011;57617;51.988;5.854;2023-04-25T09:08:30;7.55;;;1.02;;
70228;SDS011;57617;51.988;5.854;2023-04-25T09:10:55;6.50;;;1.10;;
70228;SDS011;57617;51.988;5.854;2023-04-25T09:13:24;5.30;;;1.15;;
70228;SDS011;57617;51.988;5.854;2023-04-25T09:15:52;5.30;;;1.23;;
70228;SDS011;57617;51.988;5.854;2023-04-25T09:18:23;5.15;;;1.05;;
70228;SDS011;57617;51.988;5.854;2023-04-25T09:20:52;11.18;;;1.27;;
70228;SDS011;57617;51.988;5.854;2023-04-25T09:23:19;7.75;;;1.00;;
70228;SDS011;57617;51.988;5.854;2023-04-25T09:25:49;3.30;;;0.90;;
70228;SDS011;57617;51.988;5.854;2023-04-25T09:28:16;5.22;;;1.15;;
70228;SDS011;57617;51.988;5.854;2023-04-25T09:30:49;5.95;;;1.10;;
70228;SDS011;57617;51.988;5.854;2023-04-25T09:33:14;10.30;;;1.10;;
70228;SDS011;57617;51.988;5.854;2023-04-25T09:35:40;6.72;;;1.20;;
70228;SDS011;57617;51.988;5.854;2023-04-25T09:38:18;3.38;;;0.82;;
70228;SDS011;57617;51.988;5.854;2023-04-25T09:40:44;7.25;;;1.00;;
70228;SDS011;57617;51.988;5.854;2023-04-25T09:43:23;6.93;;;0.98;;
70228;SDS011;57617;51.988;5.854;2023-04-25T09:45:50;4.47;;;1.10;;
70228;SDS011;57617;51.988;5.854;2023-04-25T09:48:18;5.07;;;0.95;;
70228;SDS011;57617;51.988;5.854;2023-04-25T09:50:44;7.43;;;1.25;;
70228;SDS011;57617;51.988;5.854;2023-04-25T09:53:10;3.63;;;0.80;;
70228;SDS011;57617;51.988;5.854;2023-04-25T09:55:35;6.03;;;1.00;;
70228;SDS011;57617;51.988;5.854;2023-04-25T09:58:03;6.90;;;0.93;;
70228;SDS011;57617;51.988;5.854;2023-04-25T10:00:33;8.90;;;1.60;;
70228;SDS011;57617;51.988;5.854;2023-04-25T10:03:00;5.20;;;1.10;;
70228;SDS011;57617;51.988;5.854;2023-04-25T10:05:28;4.28;;;0.93;;
70228;SDS011;57617;51.988;5.854;2023-04-25T10:07:56;4.53;;;0.90;;
70228;SDS011;57617;51.988;5.854;2023-04-25T10:10:23;3.55;;;0.88;;
70228;SDS011;57617;51.988;5.854;2023-04-25T10:12:52;7.20;;;1.15;;
70228;SDS011;57617;51.988;5.854;2023-04-25T10:15:18;7.95;;;1.13;;
70228;SDS011;57617;51.988;5.854;2023-04-25T10:17:44;3.50;;;0.80;;
70228;SDS011;57617;51.988;5.854;2023-04-25T10:20:10;7.20;;;1.23;;
70228;SDS011;57617;51.988;5.854;2023-04-25T10:22:41;9.73;;;1.15;;
70228;SDS011;57617;51.988;5.854;2023-04-25T10:25:09;6.15;;;1.02;;
70228;SDS011;57617;51.988;5.854;2023-04-25T10:27:35;4.90;;;0.90;;
70228;SDS011;57617;51.988;5.854;2023-04-25T10:30:07;5.63;;;1.17;;
70228;SDS011;57617;51.988;5.854;2023-04-25T10:32:41;4.43;;;0.80;;
70228;SDS011;57617;51.988;5.854;2023-04-25T10:35:24;2.90;;;0.95;;
70228;SDS011;57617;51.988;5.854;2023-04-25T10:38:04;5.20;;;0.82;;
70228;SDS011;57617;51.988;5.854;2023-04-25T10:40:33;5.22;;;0.80;;
70228;SDS011;57617;51.988;5.854;2023-04-25T10:45:55;9.75;;;1.40;;
70228;SDS011;57617;51.988;5.854;2023-04-25T10:48:30;3.20;;;1.00;;
70228;SDS011;57617;51.988;5.854;2023-04-25T10:51:09;5.47;;;1.00;;
70228;SDS011;57617;51.988;5.854;2023-04-25T10:53:35;6.97;;;1.23;;
70228;SDS011;57617;51.988;5.854;2023-04-25T10:56:09;5.63;;;1.00;;
70228;SDS011;57617;51.988;5.854;2023-04-25T10:58:35;3.53;;;0.75;;
70228;SDS011;57617;51.988;5.854;2023-04-25T11:01:01;10.00;;;1.08;;
70228;SDS011;57617;51.988;5.854;2023-04-25T11:03:26;1.98;;;0.88;;
70228;SDS011;57617;51.988;5.854;2023-04-25T11:05:51;3.85;;;0.90;;
70228;SDS011;57617;51.988;5.854;2023-04-25T11:08:18;4.35;;;1.00;;
70228;SDS011;57617;51.988;5.854;2023-04-25T11:10:58;6.07;;;1.20;;
70228;SDS011;57617;51.988;5.854;2023-04-25T11:13:28;4.88;;;0.88;;
70228;SDS011;57617;51.988;5.854;2023-04-25T11:15:54;7.07;;;0.95;;
70228;SDS011;57617;51.988;5.854;2023-04-25T11:18:20;5.13;;;1.05;;
70228;SDS011;57617;51.988;5.854;2023-04-25T11:20:46;5.70;;;0.75;;
70228;SDS011;57617;51.988;5.854;2023-04-25T11:23:13;4.93;;;1.02;;
70228;SDS011;57617;51.988;5.854;2023-04-25T11:25:38;3.47;;;0.93;;
70228;SDS011;57617;51.988;5.854;2023-04-25T11:28:04;6.18;;;1.10;;
70228;SDS011;57617;51.988;5.854;2023-04-25T11:30:29;3.10;;;0.70;;
70228;SDS011;57617;51.988;5.854;2023-04-25T11:32:55;6.20;;;1.00;;
70228;SDS011;57617;51.988;5.854;2023-04-25T11:35:21;7.75;;;1.42;;
70228;SDS011;57617;51.988;5.854;2023-04-25T11:37:48;1.67;;;0.77;;
70228;SDS011;57617;51.988;5.854;2023-04-25T11:40:14;5.55;;;1.00;;
70228;SDS011;57617;51.988;5.854;2023-04-25T11:42:43;2.63;;;0.80;;
70228;SDS011;57617;51.988;5.854;2023-04-25T11:45:09;4.80;;;1.05;;
70228;SDS011;57617;51.988;5.854;2023-04-25T11:47:35;4.47;;;1.10;;
70228;SDS011;57617;51.988;5.854;2023-04-25T11:50:02;6.63;;;0.82;;
70228;SDS011;57617;51.988;5.854;2023-04-25T11:52:42;5.20;;;0.88;;
70228;SDS011;57617;51.988;5.854;2023-04-25T11:55:09;3.45;;;1.00;;
70228;SDS011;57617;51.988;5.854;2023-04-25T11:57:40;2.03;;;0.75;;
70228;SDS011;57617;51.988;5.854;2023-04-25T12:00:13;4.63;;;1.15;;
70228;SDS011;57617;51.988;5.854;2023-04-25T12:02:51;5.65;;;0.90;;
70228;SDS011;57617;51.988;5.854;2023-04-25T12:05:18;4.47;;;1.00;;
70228;SDS011;57617;51.988;5.854;2023-04-25T12:07:45;2.85;;;1.02;;
70228;SDS011;57617;51.988;5.854;2023-04-25T12:10:11;5.47;;;0.98;;
70228;SDS011;57617;51.988;5.854;2023-04-25T12:12:41;6.47;;;1.05;;
70228;SDS011;57617;51.988;5.854;2023-04-25T12:17:40;6.40;;;0.95;;
70228;SDS011;57617;51.988;5.854;2023-04-25T12:20:09;5.35;;;0.90;;
70228;SDS011;57617;51.988;5.854;2023-04-25T12:22:37;5.88;;;1.00;;
70228;SDS011;57617;51.988;5.854;2023-04-25T12:25:03;5.28;;;0.77;;
70228;SDS011;57617;51.988;5.854;2023-04-25T12:27:30;4.35;;;1.08;;
70228;SDS011;57617;51.988;5.854;2023-04-25T12:29:56;3.08;;;1.15;;
70228;SDS011;57617;51.988;5.854;2023-04-25T12:32:22;3.35;;;0.90;;
70228;SDS011;57617;51.988;5.854;2023-04-25T12:34:48;2.25;;;0.98;;
70228;SDS011;57617;51.988;5.854;2023-04-25T12:37:13;5.95;;;1.30;;
70228;SDS011;57617;51.988;5.854;2023-04-25T12:39:38;6.00;;;1.02;;
70228;SDS011;57617;51.988;5.854;2023-04-25T12:42:04;5.68;;;1.10;;
70228;SDS011;57617;51.988;5.854;2023-04-25T12:44:30;2.17;;;0.80;;
70228;SDS011;57617;51.988;5.854;2023-04-25T12:46:55;8.07;;;1.20;;
70228;SDS011;57617;51.988;5.854;2023-04-25T12:49:20;7.22;;;1.10;;
70228;SDS011;57617;51.988;5.854;2023-04-25T12:51:46;6.22;;;0.88;;
70228;SDS011;57617;51.988;5.854;2023-04-25T12:54:11;7.97;;;1.25;;
70228;SDS011;57617;51.988;5.854;2023-04-25T12:56:37;6.80;;;1.20;;
70228;SDS011;57617;51.988;5.854;2023-04-25T12:59:02;8.00;;;1.30;;
70228;SDS011;57617;51.988;5.854;2023-04-25T13:01:29;5.05;;;0.98;;
70228;SDS011;57617;51.988;5.854;2023-04-25T13:03:55;8.05;;;0.98;;
70228;SDS011;57617;51.988;5.854;2023-04-25T13:06:21;4.43;;;1.10;;
70228;SDS011;57617;51.988;5.854;2023-04-25T13:08:47;5.57;;;1.02;;
70228;SDS011;57617;51.988;5.854;2023-04-25T13:11:12;4.53;;;1.05;;
70228;SDS011;57617;51.988;5.854;2023-04-25T13:13:39;8.50;;;1.23;;
70228;SDS011;57617;51.988;5.854;2023-04-25T13:16:05;7.05;;;1.10;;
70228;SDS011;57617;51.988;5.854;2023-04-25T13:18:32;5.15;;;1.10;;
70228;SDS011;57617;51.988;5.854;2023-04-25T13:20:58;4.03;;;1.08;;
70228;SDS011;57617;51.988;5.854;2023-04-25T13:23:24;3.05;;;1.02;;
70228;SDS011;57617;51.988;5.854;2023-04-25T13:25:51;5.07;;;1.20;;
70228;SDS011;57617;51.988;5.854;2023-04-25T13:28:17;4.30;;;1.00;;
70228;SDS011;57617;51.988;5.854;2023-04-25T13:30:42;2.65;;;0.70;;
70228;SDS011;57617;51.988;5.854;2023-04-25T13:33:08;9.60;;;1.38;;
70228;SDS011;57617;51.988;5.854;2023-04-25T13:35:34;3.50;;;0.88;;
70228;SDS011;57617;51.988;5.854;2023-04-25T13:38:00;4.82;;;1.10;;
70228;SDS011;57617;51.988;5.854;2023-04-25T13:40:25;6.97;;;1.42;;
70228;SDS011;57617;51.988;5.854;2023-04-25T13:42:51;7.40;;;1.10;;
70228;SDS011;57617;51.988;5.854;2023-04-25T13:45:17;2.22;;;0.80;;
70228;SDS011;57617;51.988;5.854;2023-04-25T13:47:43;4.20;;;1.15;;
70228;SDS011;57617;51.988;5.854;2023-04-25T13:50:08;4.38;;;1.05;;
70228;SDS011;57617;51.988;5.854;2023-04-25T13:52:34;4.05;;;1.08;;
70228;SDS011;57617;51.988;5.854;2023-04-25T13:54:59;7.50;;;0.90;;
70228;SDS011;57617;51.988;5.854;2023-04-25T13:57:26;6.80;;;0.85;;
70228;SDS011;57617;51.988;5.854;2023-04-25T13:59:51;2.65;;;0.77;;
70228;SDS011;57617;51.988;5.854;2023-04-25T14:02:17;4.88;;;0.80;;
70228;SDS011;57617;51.988;5.854;2023-04-25T14:04:43;3.60;;;1.00;;
70228;SDS011;57617;51.988;5.854;2023-04-25T14:07:08;3.33;;;0.77;;
70228;SDS011;57617;51.988;5.854;2023-04-25T14:09:33;8.82;;;0.77;;
70228;SDS011;57617;51.988;5.854;2023-04-25T14:11:59;4.05;;;0.82;;
70228;SDS011;57617;51.988;5.854;2023-04-25T14:14:25;4.35;;;0.90;;
70228;SDS011;57617;51.988;5.854;2023-04-25T14:16:50;4.35;;;1.02;;
70228;SDS011;57617;51.988;5.854;2023-04-25T14:19:20;4.15;;;1.20;;
70228;SDS011;57617;51.988;5.854;2023-04-25T14:21:45;5.30;;;1.25;;
70228;SDS011;57617;51.988;5.854;2023-04-25T14:24:11;8.60;;;1.15;;
70228;SDS011;57617;51.988;5.854;2023-04-25T14:26:36;4.13;;;1.05;;
70228;SDS011;57617;51.988;5.854;2023-04-25T14:29:03;4.63;;;1.02;;
70228;SDS011;57617;51.988;5.854;2023-04-25T14:31:30;7.25;;;0.85;;
70228;SDS011;57617;51.988;5.854;2023-04-25T14:33:55;3.60;;;0.90;;
70228;SDS011;57617;51.988;5.854;2023-04-25T14:36:21;5.15;;;1.00;;
70228;SDS011;57617;51.988;5.854;2023-04-25T14:38:46;5.72;;;0.90;;
70228;SDS011;57617;51.988;5.854;2023-04-25T14:41:12;4.95;;;0.73;;